createdAt,value
2022-10-16T00:01:38.010Z,1.60
2022-10-16T00:04:06.334Z,1.50
2022-10-16T00:06:34.690Z,1.30
2022-10-16T00:09:04.199Z,1.30
2022-10-16T00:11:34.458Z,1.30
2022-10-16T00:14:03.477Z,1.63
2022-10-16T00:16:31.914Z,1.47
2022-10-16T00:19:00.086Z,1.30
2022-10-16T00:21:28.947Z,1.37
2022-10-16T00:23:58.076Z,1.20
2022-10-16T00:26:28.088Z,1.20
2022-10-16T00:28:56.265Z,1.00
2022-10-16T00:31:25.582Z,1.23
2022-10-16T00:33:53.907Z,1.20
2022-10-16T00:36:24.237Z,1.20
2022-10-16T00:38:55.565Z,1.13
2022-10-16T00:41:24.951Z,1.20
2022-10-16T00:43:55.547Z,1.03
2022-10-16T00:46:25.375Z,1.00
2022-10-16T00:48:55.686Z,1.00
2022-10-16T00:51:25.703Z,1.07
2022-10-16T00:53:54.364Z,1.10
2022-10-16T00:56:22.639Z,1.00
2022-10-16T00:58:50.825Z,0.90
2022-10-16T01:01:20.411Z,1.17
2022-10-16T01:03:48.619Z,1.27
2022-10-16T01:09:13.963Z,1.20
2022-10-16T01:11:46.790Z,1.10
2022-10-16T01:14:18.814Z,1.10
2022-10-16T01:16:51.651Z,1.47
2022-10-16T01:19:22.836Z,1.00
2022-10-16T01:21:53.768Z,0.90
2022-10-16T01:24:30.232Z,0.97
2022-10-16T01:27:06.435Z,1.20
2022-10-16T01:29:37.399Z,0.80
2022-10-16T01:32:10.965Z,0.90
2022-10-16T01:34:41.104Z,0.90
2022-10-16T01:37:12.328Z,1.10
2022-10-16T01:39:42.233Z,0.80
2022-10-16T01:42:14.037Z,0.83
2022-10-16T01:44:42.667Z,0.90
2022-10-16T01:47:12.989Z,0.77
2022-10-16T01:49:42.557Z,1.00
2022-10-16T01:52:12.427Z,0.80
2022-10-16T01:54:41.895Z,0.90
2022-10-16T01:57:10.569Z,0.97
2022-10-16T01:59:41.581Z,1.10
2022-10-16T02:02:12.126Z,0.80
2022-10-16T02:04:42.146Z,1.00
2022-10-16T02:07:10.404Z,0.90
2022-10-16T02:09:38.859Z,0.90
2022-10-16T02:12:10.914Z,1.10
2022-10-16T02:14:41.912Z,0.90
2022-10-16T02:17:13.359Z,0.90
2022-10-16T02:19:41.683Z,0.90
2022-10-16T02:22:11.229Z,1.10
2022-10-16T02:24:41.524Z,1.00
2022-10-16T02:27:12.057Z,0.90
2022-10-16T02:29:45.437Z,1.10
2022-10-16T02:32:15.747Z,1.00
2022-10-16T02:34:44.310Z,1.20
2022-10-16T02:37:12.444Z,0.90
2022-10-16T02:39:41.493Z,1.00
2022-10-16T02:42:12.504Z,1.03
2022-10-16T02:44:42.255Z,1.10
2022-10-16T02:49:43.580Z,1.10
2022-10-16T02:52:11.709Z,1.23
2022-10-16T02:54:39.860Z,1.20
2022-10-16T02:57:07.990Z,1.13
2022-10-16T02:59:36.123Z,1.13
2022-10-16T03:02:05.767Z,1.10
2022-10-16T03:04:33.956Z,1.20
2022-10-16T03:07:02.128Z,1.30
2022-10-16T03:09:30.260Z,1.50
2022-10-16T03:11:58.379Z,1.27
2022-10-16T03:16:59.583Z,1.50
2022-10-16T03:19:29.061Z,1.50
2022-10-16T03:21:57.207Z,1.50
2022-10-16T03:24:25.380Z,1.40
2022-10-16T03:26:53.551Z,1.37
2022-10-16T03:29:21.684Z,1.27
2022-10-16T03:31:50.545Z,1.17
2022-10-16T03:34:18.758Z,1.50
2022-10-16T03:36:48.249Z,1.20
2022-10-16T03:39:16.410Z,1.23
2022-10-16T03:41:44.541Z,1.20
2022-10-16T03:44:12.706Z,1.30
2022-10-16T03:46:40.873Z,1.37
2022-10-16T03:49:09.968Z,1.73
2022-10-16T03:51:38.529Z,1.47
2022-10-16T03:54:08.025Z,1.50
2022-10-16T03:56:36.178Z,1.40
2022-10-16T03:59:04.385Z,1.67
2022-10-16T04:01:32.557Z,1.53
2022-10-16T04:04:00.690Z,1.40
2022-10-16T04:06:28.901Z,1.30
2022-10-16T04:08:57.083Z,1.57
2022-10-16T04:11:26.591Z,1.43
2022-10-16T04:13:54.752Z,1.47
2022-10-16T04:16:22.893Z,1.50
2022-10-16T04:18:51.031Z,1.40
2022-10-16T04:21:19.199Z,1.60
2022-10-16T04:23:47.365Z,1.50
2022-10-16T04:26:15.515Z,1.40
2022-10-16T04:28:45.544Z,1.60
2022-10-16T04:31:13.705Z,1.50
2022-10-16T04:33:41.841Z,1.40
2022-10-16T04:36:09.968Z,1.47
2022-10-16T04:38:38.404Z,1.40
2022-10-16T04:41:06.693Z,1.43
2022-10-16T04:43:34.873Z,1.30
2022-10-16T04:46:05.609Z,1.57
2022-10-16T04:48:33.776Z,1.70
2022-10-16T04:51:02.210Z,1.50
2022-10-16T04:53:30.430Z,1.50
2022-10-16T04:55:58.555Z,1.90
2022-10-16T04:58:26.762Z,1.70
2022-10-16T05:00:54.903Z,1.60
2022-10-16T05:03:24.447Z,1.60
2022-10-16T05:05:52.626Z,1.97
2022-10-16T05:08:20.812Z,1.53
2022-10-16T05:10:48.993Z,1.80
2022-10-16T05:13:17.162Z,1.63
2022-10-16T05:15:45.320Z,1.80
2022-10-16T05:18:13.433Z,1.63
2022-10-16T05:20:43.520Z,1.70
2022-10-16T05:25:41.756Z,1.70
2022-10-16T05:28:09.911Z,2.20
2022-10-16T05:30:40.007Z,2.07
2022-10-16T05:33:08.113Z,1.73
2022-10-16T05:35:36.639Z,1.87
2022-10-16T05:38:06.304Z,1.67
2022-10-16T05:40:34.480Z,2.10
2022-10-16T05:43:02.639Z,1.83
2022-10-16T05:45:30.817Z,2.13
2022-10-16T05:47:59.053Z,2.13
2022-10-16T05:50:27.184Z,1.90
2022-10-16T05:52:55.328Z,2.00
2022-10-16T05:55:24.836Z,1.93
2022-10-16T05:57:52.980Z,1.93
2022-10-16T06:00:21.134Z,2.00
2022-10-16T06:02:49.288Z,2.27
2022-10-16T06:05:17.463Z,2.20
2022-10-16T06:07:45.616Z,2.23
2022-10-16T06:10:13.760Z,2.20
2022-10-16T06:12:43.240Z,2.30
2022-10-16T06:15:11.592Z,2.30
2022-10-16T06:17:39.753Z,2.10
2022-10-16T06:20:08.332Z,1.80
2022-10-16T06:22:37.476Z,2.23
2022-10-16T06:25:05.932Z,2.07
2022-10-16T06:27:34.072Z,2.17
2022-10-16T06:30:04.717Z,2.10
2022-10-16T06:32:32.863Z,1.83
2022-10-16T06:35:01.041Z,2.20
2022-10-16T06:37:29.745Z,1.77
2022-10-16T06:39:57.952Z,1.90
2022-10-16T06:42:26.561Z,2.30
2022-10-16T06:44:54.888Z,1.73
2022-10-16T06:47:24.632Z,1.87
2022-10-16T06:49:54.382Z,2.03
2022-10-16T06:52:22.691Z,1.70
2022-10-16T06:54:50.831Z,1.60
2022-10-16T06:57:19.117Z,1.40
2022-10-16T06:59:47.670Z,1.73
2022-10-16T07:02:16.791Z,1.60
2022-10-16T07:04:46.261Z,1.50
2022-10-16T07:07:14.423Z,1.30
2022-10-16T07:09:42.852Z,1.40
2022-10-16T07:12:11.022Z,1.30
2022-10-16T07:14:39.288Z,1.37
2022-10-16T07:17:07.502Z,1.47
2022-10-16T07:19:35.646Z,1.37
2022-10-16T07:22:05.778Z,1.50
2022-10-16T07:24:33.945Z,1.53
2022-10-16T07:27:02.104Z,1.63
2022-10-16T07:29:30.290Z,1.57
2022-10-16T07:31:58.415Z,1.63
2022-10-16T07:34:27.491Z,1.30
2022-10-16T07:36:55.718Z,1.30
2022-10-16T07:39:25.194Z,1.40
2022-10-16T07:41:53.320Z,1.50
2022-10-16T07:44:21.509Z,1.50
2022-10-16T07:46:49.656Z,1.40
2022-10-16T07:49:17.815Z,1.50
2022-10-16T07:51:45.972Z,1.50
2022-10-16T07:54:14.132Z,1.30
2022-10-16T07:56:48.782Z,1.20
2022-10-16T07:59:17.750Z,1.33
2022-10-16T08:01:45.944Z,1.30
2022-10-16T08:04:14.210Z,1.57
2022-10-16T08:06:42.803Z,1.30
2022-10-16T08:09:11.511Z,1.40
2022-10-16T08:11:39.623Z,1.20
2022-10-16T08:14:09.167Z,1.00
2022-10-16T08:16:37.313Z,1.10
2022-10-16T08:19:05.493Z,1.10
2022-10-16T08:21:33.646Z,1.27
2022-10-16T08:24:02.001Z,1.07
2022-10-16T08:26:30.174Z,1.00
2022-10-16T08:28:58.523Z,1.10
2022-10-16T08:31:28.245Z,1.10
2022-10-16T08:33:56.586Z,1.00
2022-10-16T08:36:24.740Z,0.90
2022-10-16T08:38:55.085Z,0.80
2022-10-16T08:41:34.039Z,1.00
2022-10-16T08:44:09.211Z,1.10
2022-10-16T08:46:49.648Z,1.00
2022-10-16T08:49:18.961Z,0.93
2022-10-16T08:51:50.351Z,1.20
2022-10-16T08:54:24.424Z,1.10
2022-10-16T08:56:52.600Z,1.10
2022-10-16T08:59:21.262Z,0.80
2022-10-16T09:01:53.121Z,1.00
2022-10-16T09:04:42.695Z,0.80
2022-10-16T09:07:14.215Z,0.87
2022-10-16T09:09:52.321Z,0.93
2022-10-16T09:12:23.174Z,1.23
2022-10-16T09:14:57.786Z,0.80
2022-10-16T09:17:31.577Z,0.90
2022-10-16T09:20:03.357Z,0.80
2022-10-16T09:22:31.824Z,0.63
2022-10-16T09:25:02.151Z,0.70
2022-10-16T09:27:30.290Z,0.60
2022-10-16T09:29:59.854Z,0.70
2022-10-16T09:32:30.892Z,0.80
2022-10-16T09:34:59.429Z,1.10
2022-10-16T09:37:29.278Z,0.90
2022-10-16T09:39:57.908Z,0.80
2022-10-16T09:42:30.039Z,0.80
2022-10-16T09:44:59.174Z,0.93
2022-10-16T09:47:28.801Z,0.67
2022-10-16T09:50:02.812Z,0.90
2022-10-16T09:52:31.399Z,0.70
2022-10-16T09:55:00.426Z,0.70
2022-10-16T09:57:29.419Z,0.60
2022-10-16T09:59:58.562Z,0.97
2022-10-16T10:02:31.512Z,0.70
2022-10-16T10:05:01.019Z,0.70
2022-10-16T10:07:30.224Z,0.87
2022-10-16T10:09:59.492Z,0.70
2022-10-16T10:12:28.745Z,1.23
2022-10-16T10:14:58.371Z,0.70
2022-10-16T10:17:27.044Z,0.97
2022-10-16T10:19:56.369Z,0.70
2022-10-16T10:22:28.478Z,0.90
2022-10-16T10:24:57.907Z,0.80
2022-10-16T10:27:28.734Z,0.70
2022-10-16T10:30:02.302Z,0.83
2022-10-16T10:32:33.199Z,0.63
2022-10-16T10:35:06.755Z,0.90
2022-10-16T10:37:45.434Z,0.70
2022-10-16T10:40:19.218Z,0.80
2022-10-16T10:42:50.234Z,0.87
2022-10-16T10:45:25.751Z,0.97
2022-10-16T10:48:02.166Z,0.90
2022-10-16T10:50:35.141Z,0.60
2022-10-16T10:53:10.292Z,0.60
2022-10-16T10:55:42.107Z,0.80
2022-10-16T10:58:20.887Z,0.80
2022-10-16T11:00:54.539Z,0.90
2022-10-16T11:03:30.331Z,0.57
2022-10-16T11:05:59.266Z,0.63
2022-10-16T11:08:31.895Z,0.70
2022-10-16T11:11:01.494Z,0.80
2022-10-16T11:13:33.080Z,0.70
2022-10-16T11:16:01.948Z,0.70
2022-10-16T11:18:33.934Z,0.77
2022-10-16T11:21:05.344Z,0.70
2022-10-16T11:23:37.911Z,0.80
2022-10-16T11:26:08.477Z,0.63
2022-10-16T11:28:40.204Z,0.63
2022-10-16T11:31:11.535Z,0.67
2022-10-16T11:33:42.563Z,0.70
2022-10-16T11:36:15.055Z,0.80
2022-10-16T11:38:46.603Z,0.60
2022-10-16T11:41:19.943Z,0.70
2022-10-16T11:43:52.260Z,0.90
2022-10-16T11:46:22.053Z,0.90
2022-10-16T11:48:53.127Z,0.67
2022-10-16T11:51:25.383Z,0.70
2022-10-16T11:53:58.187Z,0.80
2022-10-16T11:56:27.086Z,1.20
2022-10-16T11:58:58.300Z,1.00
2022-10-16T12:01:31.196Z,0.70
2022-10-16T12:04:05.434Z,1.10
2022-10-16T12:06:35.987Z,0.90
2022-10-16T12:09:05.785Z,0.70
2022-10-16T12:11:36.493Z,0.70
2022-10-16T12:14:09.054Z,0.90
2022-10-16T12:16:39.772Z,0.73
2022-10-16T12:19:15.242Z,0.70
2022-10-16T12:21:43.922Z,0.80
2022-10-16T12:24:23.992Z,0.70
2022-10-16T12:26:53.113Z,0.80
2022-10-16T12:29:26.187Z,0.80
2022-10-16T12:31:58.376Z,0.77
2022-10-16T12:34:29.947Z,0.70
2022-10-16T12:36:58.892Z,0.90
2022-10-16T12:39:30.391Z,0.80
2022-10-16T12:42:06.041Z,0.70
2022-10-16T12:44:35.249Z,0.67
2022-10-16T12:47:03.742Z,0.77
2022-10-16T12:49:34.035Z,0.60
2022-10-16T12:52:02.216Z,0.80
2022-10-16T12:54:32.426Z,0.50
2022-10-16T12:57:10.817Z,1.03
2022-10-16T12:59:43.924Z,0.83
2022-10-16T13:02:24.771Z,0.70
2022-10-16T13:05:08.740Z,0.60
2022-10-16T13:07:43.040Z,0.73
2022-10-16T13:10:18.224Z,0.83
2022-10-16T13:13:04.032Z,0.70
2022-10-16T13:15:37.204Z,0.50
2022-10-16T13:18:08.762Z,0.77
2022-10-16T13:20:38.148Z,0.77
2022-10-16T13:23:11.597Z,0.70
2022-10-16T13:25:48.204Z,0.70
2022-10-16T13:28:16.559Z,0.70
2022-10-16T13:30:45.647Z,0.77
2022-10-16T13:33:17.281Z,0.80
2022-10-16T13:35:50.048Z,1.10
2022-10-16T13:38:19.574Z,0.90
2022-10-16T13:40:56.146Z,0.70
2022-10-16T13:43:26.298Z,0.70
2022-10-16T13:46:02.717Z,0.90
2022-10-16T13:48:31.450Z,0.90
2022-10-16T13:51:07.312Z,0.63
2022-10-16T13:53:36.567Z,0.70
2022-10-16T13:56:07.935Z,0.90
2022-10-16T13:58:36.149Z,0.70
2022-10-16T14:01:06.921Z,0.70
2022-10-16T14:03:37.591Z,0.80
2022-10-16T14:06:07.167Z,1.00
2022-10-16T14:08:35.509Z,0.60
2022-10-16T14:11:03.963Z,0.70
2022-10-16T14:13:38.898Z,0.60
2022-10-16T14:16:09.454Z,0.70
2022-10-16T14:18:37.863Z,0.53
2022-10-16T14:21:06.985Z,0.60
2022-10-16T14:23:36.653Z,0.80
2022-10-16T14:26:18.553Z,1.03
2022-10-16T14:28:49.087Z,0.97
2022-10-16T14:31:28.105Z,0.80
2022-10-16T14:33:56.581Z,0.70
2022-10-16T14:36:25.077Z,0.60
2022-10-16T14:38:58.544Z,0.90
2022-10-16T14:41:26.916Z,0.73
2022-10-16T14:43:57.833Z,0.50
2022-10-16T14:46:31.154Z,0.80
2022-10-16T14:49:02.632Z,0.70
2022-10-16T14:51:30.842Z,0.60
2022-10-16T14:54:00.341Z,0.60
2022-10-16T14:56:33.275Z,0.53
2022-10-16T14:59:03.447Z,0.70
2022-10-16T15:01:31.612Z,0.73
2022-10-16T15:03:59.826Z,0.40
2022-10-16T15:06:28.012Z,0.57
2022-10-16T15:08:56.172Z,0.60
2022-10-16T15:11:27.577Z,0.80
2022-10-16T15:13:55.721Z,0.83
2022-10-16T15:16:25.228Z,0.93
2022-10-16T15:18:53.982Z,1.00
2022-10-16T15:21:25.220Z,1.00
2022-10-16T15:23:53.400Z,0.83
2022-10-16T15:26:21.660Z,1.00
2022-10-16T15:28:49.829Z,1.20
2022-10-16T15:31:18.076Z,1.00
2022-10-16T15:33:53.820Z,0.90
2022-10-16T15:36:28.826Z,0.67
2022-10-16T15:38:57.096Z,0.90
2022-10-16T15:41:25.644Z,0.90
2022-10-16T15:43:54.081Z,0.77
2022-10-16T15:46:23.190Z,0.90
2022-10-16T15:48:53.773Z,0.80
2022-10-16T15:51:21.939Z,0.80
2022-10-16T15:53:51.695Z,0.80
2022-10-16T15:56:20.406Z,0.70
2022-10-16T15:58:48.561Z,0.90
2022-10-16T16:01:17.549Z,0.70
2022-10-16T16:03:45.768Z,0.77
2022-10-16T16:06:16.138Z,0.80
2022-10-16T16:08:44.296Z,0.80
2022-10-16T16:11:13.569Z,0.87
2022-10-16T16:13:42.437Z,0.80
2022-10-16T16:16:11.180Z,0.80
2022-10-16T16:18:39.557Z,0.90
2022-10-16T16:21:08.134Z,1.17
2022-10-16T16:23:37.667Z,0.73
2022-10-16T16:26:10.719Z,0.90
2022-10-16T16:28:39.240Z,0.90
2022-10-16T16:31:07.796Z,1.40
2022-10-16T16:33:36.248Z,0.97
2022-10-16T16:36:07.068Z,0.87
2022-10-16T16:38:37.856Z,1.00
2022-10-16T16:41:13.455Z,0.90
2022-10-16T16:43:41.636Z,0.90
2022-10-16T16:46:09.772Z,0.93
2022-10-16T16:48:38.077Z,1.10
2022-10-16T16:51:06.889Z,1.10
2022-10-16T16:53:36.126Z,1.00
2022-10-16T16:56:06.445Z,1.03
2022-10-16T16:58:34.883Z,0.93
2022-10-16T17:01:20.801Z,0.80
2022-10-16T17:03:51.395Z,2.50
2022-10-16T17:06:20.937Z,1.53
2022-10-16T17:08:49.543Z,1.90
2022-10-16T17:11:19.520Z,1.80
2022-10-16T17:13:49.947Z,1.93
2022-10-16T17:16:20.957Z,2.57
2022-10-16T17:18:49.266Z,1.50
2022-10-16T17:21:17.456Z,2.00
2022-10-16T17:23:45.685Z,2.20
2022-10-16T17:26:15.382Z,1.60
2022-10-16T17:28:45.412Z,2.30
2022-10-16T17:31:14.397Z,2.60
2022-10-16T17:33:42.885Z,2.90
2022-10-16T17:36:11.721Z,2.33
2022-10-16T17:38:40.022Z,1.93
2022-10-16T17:41:15.327Z,2.30
2022-10-16T17:43:44.870Z,1.87
2022-10-16T17:46:13.473Z,1.93
2022-10-16T17:48:41.946Z,2.10
2022-10-16T17:51:10.946Z,2.30
2022-10-16T17:53:39.726Z,2.47
2022-10-16T17:56:08.719Z,2.40
2022-10-16T17:58:36.893Z,2.37
2022-10-16T18:01:13.548Z,2.70
2022-10-16T18:03:41.727Z,2.43
2022-10-16T18:06:10.032Z,1.73
2022-10-16T18:08:38.183Z,2.07
2022-10-16T18:11:06.771Z,1.97
2022-10-16T18:13:35.105Z,1.67
2022-10-16T18:16:03.304Z,2.00
2022-10-16T18:18:32.799Z,1.93
2022-10-16T18:21:01.587Z,1.90
2022-10-16T18:23:30.075Z,2.10
2022-10-16T18:25:58.496Z,2.13
2022-10-16T18:28:26.761Z,2.30
2022-10-16T18:30:58.088Z,2.07
2022-10-16T18:33:26.283Z,2.10
2022-10-16T18:35:56.073Z,2.10
2022-10-16T18:38:24.283Z,2.10
2022-10-16T18:40:52.443Z,2.73
2022-10-16T18:43:20.969Z,1.93
2022-10-16T18:45:56.626Z,2.50
2022-10-16T18:48:24.889Z,1.90
2022-10-16T18:50:53.125Z,2.30
2022-10-16T18:53:22.703Z,2.40
2022-10-16T18:55:54.200Z,2.40
2022-10-16T18:58:22.558Z,1.90
2022-10-16T19:00:50.687Z,2.23
2022-10-16T19:03:19.440Z,2.40
2022-10-16T19:05:47.613Z,2.40
2022-10-16T19:08:16.183Z,2.00
2022-10-16T19:10:45.709Z,2.20
2022-10-16T19:13:13.868Z,2.20
2022-10-16T19:15:53.157Z,2.40
2022-10-16T19:18:37.557Z,5.90
2022-10-16T19:23:35.428Z,3.20
2022-10-16T19:26:05.372Z,3.60
2022-10-16T19:28:33.965Z,3.93
2022-10-16T19:31:03.581Z,3.43
2022-10-16T19:33:31.768Z,2.77
2022-10-16T19:36:08.453Z,3.17
2022-10-16T19:38:36.663Z,2.80
2022-10-16T19:41:09.956Z,3.67
2022-10-16T19:43:38.108Z,3.13
2022-10-16T19:46:06.687Z,3.23
2022-10-16T19:48:35.009Z,2.93
2022-10-16T19:51:03.188Z,2.87
2022-10-16T19:53:31.790Z,3.60
2022-10-16T19:55:59.951Z,3.23
2022-10-16T19:58:29.495Z,3.27
2022-10-16T20:00:57.823Z,3.30
2022-10-16T20:03:26.092Z,3.13
2022-10-16T20:05:55.156Z,3.30
2022-10-16T20:08:23.343Z,3.93
2022-10-16T20:10:51.764Z,4.83
2022-10-16T20:13:20.525Z,4.50
2022-10-16T20:15:50.452Z,4.27
2022-10-16T20:18:18.629Z,4.23
2022-10-16T20:20:48.441Z,4.40
2022-10-16T20:23:16.639Z,4.80
2022-10-16T20:25:45.402Z,4.60
2022-10-16T20:28:14.781Z,4.20
2022-10-16T20:30:43.951Z,4.37
2022-10-16T20:33:13.478Z,4.10
2022-10-16T20:35:43.072Z,4.07
2022-10-16T20:38:11.790Z,4.73
2022-10-16T20:40:40.707Z,4.20
2022-10-16T20:43:09.136Z,4.27
2022-10-16T20:45:37.291Z,5.53
2022-10-16T20:48:05.672Z,6.57
2022-10-16T20:50:35.216Z,5.07
2022-10-16T20:53:03.373Z,5.57
2022-10-16T20:55:31.684Z,5.33
2022-10-16T20:57:59.812Z,5.67
2022-10-16T21:00:27.968Z,5.80
2022-10-16T21:02:57.238Z,5.83
2022-10-16T21:05:28.640Z,6.07
2022-10-16T21:07:59.272Z,8.10
2022-10-16T21:10:27.431Z,7.30
2022-10-16T21:12:55.672Z,8.13
2022-10-16T21:15:23.965Z,8.00
2022-10-16T21:17:53.104Z,7.47
2022-10-16T21:20:21.269Z,7.97
2022-10-16T21:22:49.415Z,7.60
2022-10-16T21:25:19.055Z,9.13
2022-10-16T21:27:47.377Z,8.30
2022-10-16T21:30:15.517Z,8.20
2022-10-16T21:32:43.661Z,7.57
2022-10-16T21:35:11.806Z,7.27
2022-10-16T21:37:39.940Z,8.73
2022-10-16T21:40:08.815Z,7.63
2022-10-16T21:42:38.299Z,7.67
2022-10-16T21:45:06.945Z,7.70
2022-10-16T21:47:35.087Z,7.47
2022-10-16T21:50:03.235Z,7.60
2022-10-16T21:52:31.444Z,7.13
2022-10-16T21:54:59.580Z,7.00
2022-10-16T21:57:28.007Z,7.30
2022-10-16T21:59:57.743Z,7.27
2022-10-16T22:02:25.876Z,6.80
2022-10-16T22:04:54.021Z,7.33
2022-10-16T22:07:22.152Z,6.90
2022-10-16T22:09:50.312Z,7.10
2022-10-16T22:12:19.618Z,7.37
2022-10-16T22:14:47.947Z,6.17
2022-10-16T22:17:17.464Z,6.67
2022-10-16T22:19:45.588Z,6.30
2022-10-16T22:22:13.764Z,6.10
2022-10-16T22:24:42.340Z,5.90
2022-10-16T22:27:10.500Z,6.53
2022-10-16T22:29:38.636Z,6.30
2022-10-16T22:32:06.779Z,6.60
2022-10-16T22:34:36.249Z,5.87
2022-10-16T22:37:04.436Z,5.87
2022-10-16T22:39:32.677Z,5.97
2022-10-16T22:42:00.832Z,5.70
2022-10-16T22:44:29.660Z,5.80
2022-10-16T22:46:57.827Z,5.60
2022-10-16T22:49:27.576Z,5.63
2022-10-16T22:51:57.072Z,5.97
2022-10-16T22:54:25.216Z,5.70
2022-10-16T22:56:53.340Z,5.50
2022-10-16T22:59:21.484Z,5.03
2022-10-16T23:01:49.711Z,5.73
2022-10-16T23:04:17.829Z,5.57
2022-10-16T23:06:45.961Z,5.70
2022-10-16T23:09:15.467Z,5.00
2022-10-16T23:11:43.589Z,5.50
2022-10-16T23:14:11.757Z,5.43
2022-10-16T23:16:39.910Z,5.20
2022-10-16T23:21:41.167Z,5.07
2022-10-16T23:24:09.338Z,5.30
2022-10-16T23:26:38.857Z,4.83
2022-10-16T23:29:07.101Z,5.20
2022-10-16T23:31:35.252Z,5.63
2022-10-16T23:34:03.384Z,5.20
2022-10-16T23:36:31.520Z,5.37
2022-10-16T23:38:59.706Z,5.13
2022-10-16T23:41:27.848Z,5.30
2022-10-16T23:43:57.336Z,5.13
2022-10-16T23:48:58.832Z,5.40
2022-10-16T23:51:26.989Z,5.33
2022-10-16T23:53:55.309Z,5.20
2022-10-16T23:56:23.444Z,5.13
2022-10-16T23:58:51.604Z,5.00
